Time;durP1;ratioP1;P1;durP2;ratioP2;P2;SDS_P1;SDS_P2;PMS_P1;PMS_P2;Temp;Humidity;BMP_temperature;BMP_pressure;BME280_temperature;BME280_humidity;BME280_pressure;Samples;Min_cycle;Max_cycle;Signal;HPM_P1;HPM_P2
2022/03/25 00:01:29;;;;;;;;;;;11.00;87.10;;;;;;6246033;23;20117;-76
2022/03/25 00:03:56;;;;;;;;;;;11.00;87.10;;;;;;6245584;23;19973;-76
2022/03/25 00:06:23;;;;;;;;;;;10.90;87.40;;;;;;6246279;23;19974;-76
2022/03/25 00:08:49;;;;;;;;;;;10.90;87.80;;;;;;6258358;23;19930;-75
2022/03/25 00:11:15;;;;;;;;;;;10.90;87.50;;;;;;6258822;23;19904;-77
2022/03/25 00:13:42;;;;;;;;;;;10.90;87.70;;;;;;6256312;23;19998;-76
2022/03/25 00:16:07;;;;;;;;;;;11.00;87.50;;;;;;6252303;23;20316;-76
2022/03/25 00:18:33;;;;;;;;;;;11.00;87.20;;;;;;6250288;23;19956;-76
2022/03/25 00:21:00;;;;;;;;;;;11.10;87.20;;;;;;6245788;23;19958;-76
2022/03/25 00:23:26;;;;;;;;;;;11.10;87.00;;;;;;6245440;23;19995;-76
2022/03/25 00:25:52;;;;;;;;;;;11.20;86.50;;;;;;6244983;23;19982;-75
2022/03/25 00:28:20;;;;;;;;;;;11.30;86.20;;;;;;6245293;23;19934;-76
2022/03/25 00:30:46;;;;;;;;;;;11.30;86.00;;;;;;6245204;23;19982;-76
2022/03/25 00:33:12;;;;;;;;;;;11.30;85.90;;;;;;6245099;23;19904;-76
2022/03/25 00:35:38;;;;;;;;;;;11.30;85.90;;;;;;6244629;23;19911;-76
2022/03/25 00:38:04;;;;;;;;;;;11.20;86.00;;;;;;6245020;23;19926;-76
2022/03/25 00:40:32;;;;;;;;;;;11.20;86.90;;;;;;6244799;23;20061;-75
2022/03/25 00:42:58;;;;;;;;;;;11.30;86.00;;;;;;6245349;23;19903;-76
2022/03/25 00:45:24;;;;;;;;;;;11.30;86.00;;;;;;6244978;23;19961;-76
2022/03/25 00:47:50;;;;;;;;;;;11.30;85.90;;;;;;6244960;23;19991;-75
2022/03/25 00:50:16;;;;;;;;;;;11.20;86.90;;;;;;6244797;23;19908;-76
2022/03/25 00:52:42;;;;;;;;;;;11.20;86.50;;;;;;6244707;23;19911;-75
2022/03/25 00:55:14;;;;;;;;;;;11.10;86.60;;;;;;6244638;23;19943;-76
2022/03/25 00:57:40;;;;;;;;;;;11.00;86.60;;;;;;6245083;23;19903;-75
2022/03/25 01:00:06;;;;;;;;;;;11.00;86.80;;;;;;6244503;23;19910;-76
2022/03/25 01:02:41;;;;;;;;;;;11.00;86.30;;;;;;6244986;23;19934;-75
2022/03/25 01:05:07;;;;;;;;;;;11.00;86.40;;;;;;6244706;23;19904;-75
2022/03/25 01:07:35;;;;;;;;;;;11.00;86.30;;;;;;6217533;23;19953;-75
2022/03/25 01:10:01;;;;;;;;;;;10.90;86.30;;;;;;6244535;23;20205;-75
2022/03/25 01:12:27;;;;;;;;;;;10.90;86.40;;;;;;6245112;23;20221;-75
2022/03/25 01:14:56;;;;;;;;;;;10.90;86.30;;;;;;6244389;23;19911;-75
2022/03/25 01:17:21;;;;;;;;;;;10.90;86.20;;;;;;6244322;23;19915;-75
2022/03/25 01:19:47;;;;;;;;;;;10.90;86.30;;;;;;6244783;23;20329;-75
2022/03/25 01:22:15;;;;;;;;;;;10.80;86.40;;;;;;6244399;23;19986;-76
2022/03/25 01:24:40;;;;;;;;;;;10.80;86.20;;;;;;6244845;23;19991;-76
2022/03/25 01:27:06;;;;;;;;;;;10.80;86.00;;;;;;6244485;23;19910;-76
2022/03/25 01:29:32;;;;;;;;;;;10.80;86.10;;;;;;6244795;23;20321;-75
2022/03/25 01:31:59;;;;;;;;;;;10.70;86.50;;;;;;6244408;23;20007;-76
2022/03/25 01:34:25;;;;;;;;;;;10.70;86.60;;;;;;6244154;23;19908;-75
2022/03/25 01:36:50;;;;;;;;;;;10.70;86.70;;;;;;6244829;23;20202;-75
2022/03/25 01:39:16;;;;;;;;;;;10.70;86.70;;;;;;6244522;23;19930;-75
2022/03/25 01:41:43;;;;;;;;;;;10.60;86.80;;;;;;6244764;23;19999;-76
2022/03/25 01:44:11;;;;;;;;;;;10.60;87.00;;;;;;6244626;23;19904;-76
2022/03/25 01:46:37;;;;;;;;;;;10.60;87.10;;;;;;6244258;23;19903;-75
2022/03/25 01:49:03;;;;;;;;;;;10.60;87.10;;;;;;6244663;23;19911;-76
2022/03/25 01:51:32;;;;;;;;;;;10.60;87.10;;;;;;6244267;23;20076;-75
2022/03/25 01:54:10;;;;;;;;;;;10.60;87.30;;;;;;6244380;23;20300;-75
2022/03/25 01:56:36;;;;;;;;;;;10.60;87.40;;;;;;6244418;23;20003;-75
2022/03/25 01:59:02;;;;;;;;;;;10.60;87.50;;;;;;6216978;23;19993;-75
2022/03/25 02:01:28;;;;;;;;;;;10.70;87.50;;;;;;6244085;23;19903;-75
2022/03/25 02:03:56;;;;;;;;;;;10.60;87.40;;;;;;6217210;23;19903;-75
2022/03/25 02:06:22;;;;;;;;;;;10.60;87.30;;;;;;6244611;23;19957;-75
2022/03/25 02:08:48;;;;;;;;;;;10.70;87.40;;;;;;6244737;23;19915;-75
2022/03/25 02:11:17;;;;;;;;;;;10.60;87.20;;;;;;6244147;23;19904;-75
2022/03/25 02:13:43;;;;;;;;;;;10.60;86.90;;;;;;6244451;23;19914;-75
2022/03/25 02:16:09;;;;;;;;;;;10.60;86.50;;;;;;6243901;23;19920;-75
2022/03/25 02:18:35;;;;;;;;;;;10.60;85.80;;;;;;6244466;23;19911;-76
2022/03/25 02:21:01;;;;;;;;;;;10.60;86.10;;;;;;6243968;23;19911;-75
2022/03/25 02:23:26;;;;;;;;;;;10.60;86.00;;;;;;6244165;23;19959;-75
2022/03/25 02:25:53;;;;;;;;;;;10.50;86.60;;;;;;6244467;23;19922;-75
2022/03/25 02:28:19;;;;;;;;;;;10.50;86.60;;;;;;6244107;23;19919;-72
2022/03/25 02:30:45;;;;;;;;;;;10.40;86.80;;;;;;6244063;23;19904;-75
2022/03/25 02:33:12;;;;;;;;;;;10.30;87.20;;;;;;6244064;23;19910;-75
2022/03/25 02:35:39;;;;;;;;;;;10.20;87.40;;;;;;6243919;23;19912;-76
2022/03/25 02:38:05;;;;;;;;;;;10.10;87.80;;;;;;6243890;23;20007;-75
2022/03/25 02:40:31;;;;;;;;;;;10.10;88.00;;;;;;6243922;23;19904;-74
2022/03/25 02:42:57;;;;;;;;;;;10.00;88.10;;;;;;6216948;23;19977;-75
2022/03/25 02:45:22;;;;;;;;;;;10.00;88.50;;;;;;6243952;23;19939;-74
2022/03/25 02:47:48;;;;;;;;;;;9.90;88.70;;;;;;6243935;23;19904;-75
2022/03/25 02:50:14;;;;;;;;;;;9.90;88.70;;;;;;6216761;23;19940;-75
2022/03/25 02:52:41;;;;;;;;;;;9.80;88.90;;;;;;6243980;23;19985;-74
2022/03/25 02:55:08;;;;;;;;;;;9.80;89.10;;;;;;6243869;23;19962;-75
2022/03/25 02:57:35;;;;;;;;;;;9.70;89.40;;;;;;6243862;23;20274;-75
2022/03/25 03:00:01;;;;;;;;;;;9.70;89.10;;;;;;6243764;23;19904;-75
2022/03/25 03:02:26;;;;;;;;;;;9.70;89.30;;;;;;6244063;23;20181;-75
2022/03/25 03:04:52;;;;;;;;;;;9.80;89.10;;;;;;6243911;23;19904;-74
2022/03/25 03:07:18;;;;;;;;;;;9.80;89.10;;;;;;6245287;23;19981;-75
2022/03/25 03:09:44;;;;;;;;;;;9.80;89.10;;;;;;6218749;23;19904;-75
2022/03/25 03:12:10;;;;;;;;;;;9.70;89.30;;;;;;6245771;23;20317;-75
2022/03/25 03:14:37;;;;;;;;;;;9.70;89.30;;;;;;6245531;23;19977;-75
2022/03/25 03:17:04;;;;;;;;;;;9.80;89.00;;;;;;6245510;23;19919;-74
2022/03/25 03:19:31;;;;;;;;;;;9.70;89.20;;;;;;6218580;23;19908;-73
2022/03/25 03:21:57;;;;;;;;;;;9.70;89.30;;;;;;6219500;23;20174;-75
2022/03/25 03:24:23;;;;;;;;;;;9.60;89.40;;;;;;6245537;23;20228;-75
2022/03/25 03:26:49;;;;;;;;;;;9.60;89.70;;;;;;6245498;23;19946;-75
2022/03/25 03:29:15;;;;;;;;;;;9.60;89.70;;;;;;6245979;23;19926;-75
2022/03/25 03:31:41;;;;;;;;;;;9.60;89.90;;;;;;6245563;23;20388;-75
2022/03/25 03:34:06;;;;;;;;;;;9.60;89.50;;;;;;6245714;23;19915;-77
2022/03/25 03:36:50;;;;;;;;;;;9.60;89.50;;;;;;6245614;23;19908;-72
2022/03/25 03:39:42;;;;;;;;;;;9.60;89.40;;;;;;6245125;23;19910;-73
2022/03/25 03:42:17;;;;;;;;;;;9.60;89.30;;;;;;6219369;23;20235;-72
2022/03/25 03:44:42;;;;;;;;;;;9.70;89.00;;;;;;6245033;23;19903;-75
2022/03/25 03:47:10;;;;;;;;;;;9.80;88.50;;;;;;6245666;23;19934;-75
2022/03/25 03:49:36;;;;;;;;;;;9.90;88.10;;;;;;6218229;23;19903;-75
2022/03/25 03:52:03;;;;;;;;;;;10.00;87.90;;;;;;6245141;23;19911;-75
2022/03/25 03:54:29;;;;;;;;;;;10.00;87.70;;;;;;6244387;23;19977;-75
2022/03/25 03:56:54;;;;;;;;;;;10.10;87.60;;;;;;6245300;23;19935;-75
2022/03/25 03:59:20;;;;;;;;;;;10.10;87.60;;;;;;6245932;23;20029;-75
2022/03/25 04:01:46;;;;;;;;;;;10.10;87.80;;;;;;6245589;23;19903;-76
2022/03/25 04:04:12;;;;;;;;;;;10.00;87.90;;;;;;6246101;23;20022;-74
2022/03/25 04:06:38;;;;;;;;;;;10.00;88.20;;;;;;6218693;23;19903;-75
2022/03/25 04:09:03;;;;;;;;;;;10.00;88.40;;;;;;6219156;23;19904;-74
2022/03/25 04:11:29;;;;;;;;;;;10.00;88.40;;;;;;6245758;23;19930;-74
2022/03/25 04:13:55;;;;;;;;;;;10.00;88.20;;;;;;6218704;23;19950;-74
2022/03/25 04:16:22;;;;;;;;;;;10.00;88.20;;;;;;6245366;23;19916;-75
2022/03/25 04:18:48;;;;;;;;;;;10.00;88.00;;;;;;6246068;23;20270;-74
2022/03/25 04:21:14;;;;;;;;;;;10.00;88.00;;;;;;6245903;23;19957;-74
2022/03/25 04:23:39;;;;;;;;;;;10.00;88.60;;;;;;6246083;23;19908;-74
2022/03/25 04:26:05;;;;;;;;;;;10.00;88.40;;;;;;6246554;23;19904;-75
2022/03/25 04:28:31;;;;;;;;;;;10.00;88.20;;;;;;6246260;23;19911;-75
2022/03/25 04:30:57;;;;;;;;;;;10.00;88.50;;;;;;6246265;23;19908;-74
2022/03/25 04:33:23;;;;;;;;;;;9.90;88.80;;;;;;6246172;23;19908;-75
2022/03/25 04:35:49;;;;;;;;;;;9.90;89.00;;;;;;6246455;23;19912;-75
2022/03/25 04:38:18;;;;;;;;;;;9.80;89.30;;;;;;6246297;23;19982;-75
2022/03/25 04:40:43;;;;;;;;;;;9.70;89.70;;;;;;6246731;23;19903;-75
2022/03/25 04:43:09;;;;;;;;;;;9.60;90.00;;;;;;6246473;23;20431;-75
2022/03/25 04:45:35;;;;;;;;;;;9.60;90.20;;;;;;6246253;23;19965;-75
2022/03/25 04:48:03;;;;;;;;;;;9.50;90.40;;;;;;6246277;23;19910;-74
2022/03/25 04:50:28;;;;;;;;;;;9.40;90.60;;;;;;6246372;23;19903;-75
2022/03/25 04:52:54;;;;;;;;;;;9.40;90.60;;;;;;6246383;23;19910;-74
2022/03/25 04:55:20;;;;;;;;;;;9.40;90.70;;;;;;6246052;23;19962;-74
2022/03/25 04:57:55;;;;;;;;;;;9.40;90.70;;;;;;6246416;23;19939;-78
2022/03/25 05:00:22;;;;;;;;;;;9.30;90.70;;;;;;6219107;23;20230;-76
2022/03/25 05:02:48;;;;;;;;;;;9.30;90.80;;;;;;6246795;23;19915;-74
2022/03/25 05:05:14;;;;;;;;;;;9.20;90.90;;;;;;6246082;23;19904;-74
2022/03/25 05:07:41;;;;;;;;;;;9.20;91.10;;;;;;6219579;23;19908;-74
2022/03/25 05:10:07;;;;;;;;;;;9.20;91.30;;;;;;6246552;23;19904;-74
2022/03/25 05:12:33;;;;;;;;;;;9.20;91.30;;;;;;6219104;23;19911;-75
2022/03/25 05:14:59;;;;;;;;;;;9.10;91.40;;;;;;6245793;23;19918;-75
2022/03/25 05:17:25;;;;;;;;;;;9.10;91.60;;;;;;6246098;23;19915;-75
2022/03/25 05:19:51;;;;;;;;;;;9.00;91.70;;;;;;6219625;23;19910;-75
2022/03/25 05:22:17;;;;;;;;;;;9.00;91.80;;;;;;6246503;23;19934;-76
2022/03/25 05:24:43;;;;;;;;;;;9.00;91.90;;;;;;6220100;23;20216;-76
2022/03/25 05:27:09;;;;;;;;;;;9.10;94.80;;;;;;6219687;23;20308;-77
2022/03/25 05:29:34;;;;;;;;;;;9.20;92.30;;;;;;6246698;23;19904;-77
2022/03/25 05:32:00;;;;;;;;;;;9.30;92.00;;;;;;6246416;23;20308;-76
2022/03/25 05:34:26;;;;;;;;;;;9.40;91.30;;;;;;6246468;23;19961;-76
2022/03/25 05:36:52;;;;;;;;;;;9.50;91.20;;;;;;6246658;23;19953;-77
2022/03/25 05:39:18;;;;;;;;;;;9.60;91.20;;;;;;6246511;23;20232;-77
2022/03/25 05:41:44;;;;;;;;;;;9.70;90.60;;;;;;6246396;23;19935;-77
2022/03/25 05:44:19;;;;;;;;;;;9.80;90.40;;;;;;6246924;23;19907;-77
2022/03/25 05:46:45;;;;;;;;;;;9.90;90.30;;;;;;6218942;23;19903;-76
2022/03/25 05:49:22;;;;;;;;;;;9.90;90.30;;;;;;6246138;23;19985;-77
2022/03/25 05:51:48;;;;;;;;;;;10.00;90.20;;;;;;6246344;23;19938;-77
2022/03/25 05:54:14;;;;;;;;;;;10.40;90.00;;;;;;6245941;23;19977;-77
2022/03/25 05:56:40;;;;;;;;;;;11.20;87.90;;;;;;6246013;23;20325;-75
2022/03/25 05:59:06;;;;;;;;;;;12.10;85.00;;;;;;6218509;23;19983;-77
2022/03/25 06:01:32;;;;;;;;;;;13.10;83.30;;;;;;6219436;23;20202;-76
2022/03/25 06:03:57;;;;;;;;;;;13.80;81.00;;;;;;6246437;23;19969;-77
2022/03/25 06:06:24;;;;;;;;;;;14.50;78.90;;;;;;6246723;23;19950;-77
2022/03/25 06:08:50;;;;;;;;;;;15.20;77.20;;;;;;6218510;23;20232;-76
2022/03/25 06:11:16;;;;;;;;;;;15.50;76.40;;;;;;6246313;23;19903;-77
2022/03/25 06:13:42;;;;;;;;;;;15.40;76.40;;;;;;6245811;23;20229;-74
2022/03/25 06:16:08;;;;;;;;;;;15.10;77.30;;;;;;6218404;23;19938;-75
2022/03/25 06:18:34;;;;;;;;;;;15.00;77.50;;;;;;6246228;23;20260;-71
2022/03/25 06:20:59;;;;;;;;;;;15.00;77.70;;;;;;6245864;23;19907;-75
2022/03/25 06:23:25;;;;;;;;;;;15.30;76.40;;;;;;6246362;23;19911;-75
2022/03/25 06:25:51;;;;;;;;;;;15.90;76.30;;;;;;6246800;23;19986;-74
2022/03/25 06:28:18;;;;;;;;;;;16.40;74.90;;;;;;6245974;23;19904;-71
2022/03/25 06:30:44;;;;;;;;;;;16.80;74.30;;;;;;6219445;23;20354;-75
2022/03/25 06:33:10;;;;;;;;;;;17.50;72.80;;;;;;6245615;23;19911;-68
2022/03/25 06:35:39;;;;;;;;;;;18.80;70.60;;;;;;6245054;23;19994;-75
2022/03/25 06:38:05;;;;;;;;;;;20.00;66.90;;;;;;6245003;23;19958;-75
2022/03/25 06:40:32;;;;;;;;;;;20.50;67.80;;;;;;6245638;23;20233;-80
2022/03/25 06:42:58;;;;;;;;;;;21.30;64.70;;;;;;6246605;23;19906;-77
2022/03/25 06:45:25;;;;;;;;;;;21.20;63.90;;;;;;6246978;23;19904;-76
2022/03/25 06:47:51;;;;;;;;;;;21.20;64.30;;;;;;6245878;23;20321;-77
2022/03/25 06:50:17;;;;;;;;;;;21.50;63.90;;;;;;6245698;23;19987;-76
2022/03/25 06:52:43;;;;;;;;;;;21.40;64.20;;;;;;6245850;23;20233;-75
2022/03/25 06:55:11;;;;;;;;;;;21.50;65.10;;;;;;6218002;23;20018;-76
2022/03/25 06:57:38;;;;;;;;;;;22.80;63.20;;;;;;6245891;23;19946;-75
2022/03/25 07:00:05;;;;;;;;;;;23.90;60.20;;;;;;6245503;23;20163;-74
2022/03/25 07:02:31;;;;;;;;;;;24.00;59.80;;;;;;6218379;23;19971;-75
2022/03/25 07:04:57;;;;;;;;;;;24.70;59.10;;;;;;6246338;23;19910;-76
2022/03/25 07:07:26;;;;;;;;;;;24.90;58.60;;;;;;6246410;23;19978;-78
2022/03/25 07:09:53;;;;;;;;;;;25.20;58.20;;;;;;6218934;23;19904;-75
2022/03/25 07:12:21;;;;;;;;;;;26.10;57.30;;;;;;6218645;23;20097;-77
2022/03/25 07:14:47;;;;;;;;;;;26.80;56.00;;;;;;6245677;23;19912;-78
2022/03/25 07:17:15;;;;;;;;;;;28.20;54.50;;;;;;6217642;23;19927;-76
2022/03/25 07:19:41;;;;;;;;;;;29.20;53.00;;;;;;6244815;23;19946;-76
2022/03/25 07:22:07;;;;;;;;;;;30.30;51.20;;;;;;6244573;23;19904;-77
2022/03/25 07:24:33;;;;;;;;;;;31.20;50.60;;;;;;6246547;23;19954;-77
2022/03/25 07:27:17;;;;;;;;;;;31.40;50.40;;;;;;6245632;23;19928;-77
2022/03/25 07:29:43;;;;;;;;;;;31.40;49.20;;;;;;6246102;23;19919;-78
2022/03/25 07:32:09;;;;;;;;;;;32.00;48.50;;;;;;6246470;23;20094;-77
2022/03/25 07:34:41;;;;;;;;;;;30.60;49.00;;;;;;6245573;23;20271;-78
2022/03/25 07:37:07;;;;;;;;;;;30.10;49.50;;;;;;6219850;23;19919;-77
2022/03/25 07:39:34;;;;;;;;;;;29.00;50.30;;;;;;6245363;23;19949;-76
2022/03/25 07:41:59;;;;;;;;;;;27.60;52.60;;;;;;6244810;23;19903;-76
2022/03/25 07:44:25;;;;;;;;;;;26.40;54.00;;;;;;6245049;23;19933;-75
2022/03/25 07:46:51;;;;;;;;;;;24.70;57.50;;;;;;6245364;23;19953;-75
2022/03/25 07:49:17;;;;;;;;;;;23.20;61.60;;;;;;6245419;23;19904;-74
2022/03/25 07:51:43;;;;;;;;;;;22.50;63.60;;;;;;6244502;23;20021;-75
2022/03/25 07:54:09;;;;;;;;;;;21.80;65.40;;;;;;6245152;23;19912;-75
2022/03/25 07:56:35;;;;;;;;;;;21.70;67.10;;;;;;6244780;23;19973;-76
2022/03/25 07:59:00;;;;;;;;;;;21.30;67.30;;;;;;6244888;23;19958;-76
2022/03/25 08:01:27;;;;;;;;;;;21.00;68.90;;;;;;6217882;23;19903;-75
2022/03/25 08:03:53;;;;;;;;;;;21.10;68.40;;;;;;6244255;23;19939;-74
2022/03/25 08:06:19;;;;;;;;;;;21.10;68.10;;;;;;6244682;23;20232;-75
2022/03/25 08:08:47;;;;;;;;;;;21.20;67.10;;;;;;6244978;23;19903;-75
2022/03/25 08:11:13;;;;;;;;;;;21.20;68.10;;;;;;6244521;23;19938;-74
2022/03/25 08:13:39;;;;;;;;;;;21.10;68.20;;;;;;6244861;23;19904;-75
2022/03/25 08:16:05;;;;;;;;;;;21.20;67.90;;;;;;6112039;23;3070062;-75
2022/03/25 08:18:30;;;;;;;;;;;20.80;68.30;;;;;;6246420;23;20336;-75
2022/03/25 08:20:57;;;;;;;;;;;20.40;68.20;;;;;;6245664;23;20072;-76
2022/03/25 08:29:06;;;;;;;;;;;20.50;67.40;;;;;;6245950;23;19910;-75
2022/03/25 08:31:34;;;;;;;;;;;20.00;69.60;;;;;;6246478;23;19951;-75
2022/03/25 08:34:03;;;;;;;;;;;20.10;68.80;;;;;;6219235;23;19911;-75
2022/03/25 08:36:29;;;;;;;;;;;19.90;66.10;;;;;;6246114;23;19919;-75
2022/03/25 08:38:55;;;;;;;;;;;20.10;68.70;;;;;;6245921;23;19903;-76
2022/03/25 08:41:21;;;;;;;;;;;19.90;70.40;;;;;;6246112;23;19986;-74
2022/03/25 08:44:09;;;;;;;;;;;19.90;71.50;;;;;;6246095;23;19904;-75
2022/03/25 08:46:35;;;;;;;;;;;19.80;71.40;;;;;;6246268;23;19986;-75
2022/03/25 08:49:04;;;;;;;;;;;19.90;70.60;;;;;;6245263;23;19908;-74
2022/03/25 08:51:30;;;;;;;;;;;20.00;70.60;;;;;;6245394;23;19914;-75
2022/03/25 08:53:56;;;;;;;;;;;19.90;71.90;;;;;;6245082;23;19979;-74
2022/03/25 08:56:24;;;;;;;;;;;19.50;72.30;;;;;;6245254;23;19904;-74
2022/03/25 08:58:50;;;;;;;;;;;19.40;72.50;;;;;;6245034;23;20279;-74
2022/03/25 09:01:23;;;;;;;;;;;19.50;72.40;;;;;;6217815;23;19904;-74
2022/03/25 09:03:49;;;;;;;;;;;19.60;71.90;;;;;;6244821;23;20279;-75
2022/03/25 09:06:15;;;;;;;;;;;19.60;73.00;;;;;;6244857;23;19910;-75
2022/03/25 09:08:40;;;;;;;;;;;19.80;73.10;;;;;;6217785;23;20245;-75
2022/03/25 09:11:06;;;;;;;;;;;19.90;72.90;;;;;;6217922;23;19982;-75
2022/03/25 09:13:32;;;;;;;;;;;20.00;71.40;;;;;;6245698;23;19904;-74
2022/03/25 09:15:58;;;;;;;;;;;20.20;70.40;;;;;;6244777;23;19915;-76
2022/03/25 09:18:24;;;;;;;;;;;20.20;71.10;;;;;;6245474;23;19957;-74
2022/03/25 09:20:49;;;;;;;;;;;20.10;71.80;;;;;;6245500;23;20228;-75
2022/03/25 09:23:15;;;;;;;;;;;20.00;71.30;;;;;;6246231;23;19927;-75
2022/03/25 09:25:42;;;;;;;;;;;19.70;71.10;;;;;;6245367;23;19931;-74
2022/03/25 09:28:08;;;;;;;;;;;19.60;72.30;;;;;;6244483;23;19919;-74
2022/03/25 09:30:34;;;;;;;;;;;19.50;72.40;;;;;;6217600;23;19903;-75
2022/03/25 09:33:04;;;;;;;;;;;19.50;70.90;;;;;;6244409;23;19911;-75
2022/03/25 09:35:42;;;;;;;;;;;19.20;71.70;;;;;;6216965;23;20415;-80
2022/03/25 09:38:08;;;;;;;;;;;19.20;74.10;;;;;;6216875;23;19907;-74
2022/03/25 09:40:34;;;;;;;;;;;19.00;76.00;;;;;;6244160;23;19904;-75
2022/03/25 09:43:00;;;;;;;;;;;18.80;77.50;;;;;;6243847;23;19916;-72
2022/03/25 09:45:30;;;;;;;;;;;19.00;75.40;;;;;;6244172;23;20265;-72
2022/03/25 09:47:56;;;;;;;;;;;18.90;75.60;;;;;;6244158;23;20352;-70
2022/03/25 09:50:25;;;;;;;;;;;19.00;72.30;;;;;;6244959;23;19910;-71
2022/03/25 09:52:55;;;;;;;;;;;18.90;71.70;;;;;;6217915;23;20217;-71
2022/03/25 09:55:21;;;;;;;;;;;18.90;73.30;;;;;;6245147;23;20061;-71
2022/03/25 09:57:47;;;;;;;;;;;18.90;71.40;;;;;;6244986;23;19923;-73
2022/03/25 10:00:17;;;;;;;;;;;18.80;65.80;;;;;;6244824;23;19914;-74
2022/03/25 10:02:43;;;;;;;;;;;18.70;68.40;;;;;;6245294;23;19949;-73
2022/03/25 10:05:43;;;;;;;;;;;18.60;70.80;;;;;;6244662;23;19903;-74
2022/03/25 10:08:09;;;;;;;;;;;18.50;71.90;;;;;;6217654;23;19958;-73
2022/03/25 10:10:38;;;;;;;;;;;18.80;73.70;;;;;;6245502;23;20293;-73
2022/03/25 10:13:08;;;;;;;;;;;18.70;72.00;;;;;;6244553;23;19979;-74
2022/03/25 10:15:37;;;;;;;;;;;18.60;71.50;;;;;;6240735;23;19923;-74
2022/03/25 10:18:36;;;;;;;;;;;18.90;70.20;;;;;;6245003;23;19923;-74
2022/03/25 10:21:02;;;;;;;;;;;19.00;68.90;;;;;;6245237;23;19903;-73
2022/03/25 10:23:43;;;;;;;;;;;18.90;67.60;;;;;;6244757;23;19993;-74
2022/03/25 10:26:09;;;;;;;;;;;19.00;65.60;;;;;;6245834;23;19910;-74
2022/03/25 10:28:42;;;;;;;;;;;19.10;65.10;;;;;;6245427;23;19903;-73
2022/03/25 10:31:21;;;;;;;;;;;19.30;62.80;;;;;;6217935;23;19911;-75
2022/03/25 10:33:49;;;;;;;;;;;19.30;59.60;;;;;;6245534;23;19904;-76
2022/03/25 10:36:16;;;;;;;;;;;19.40;65.10;;;;;;6244822;23;19934;-74
2022/03/25 10:38:43;;;;;;;;;;;19.50;65.90;;;;;;6245436;23;19904;-74
2022/03/25 10:41:40;;;;;;;;;;;19.70;65.60;;;;;;6244660;23;19911;-74
2022/03/25 10:44:06;;;;;;;;;;;19.60;58.20;;;;;;6244418;23;19949;-75
2022/03/25 10:46:31;;;;;;;;;;;19.40;59.60;;;;;;6245420;23;19994;-73
2022/03/25 10:48:58;;;;;;;;;;;19.20;61.50;;;;;;6244761;23;19904;-74
2022/03/25 10:52:04;;;;;;;;;;;19.20;65.10;;;;;;6244697;23;19959;-74
2022/03/25 10:54:30;;;;;;;;;;;19.30;63.50;;;;;;6092927;23;20315;-75
2022/03/25 10:56:57;;;;;;;;;;;19.60;66.60;;;;;;6091391;23;19905;-74
2022/03/25 10:59:33;;;;;;;;;;;19.70;63.20;;;;;;6091191;23;19984;-75
2022/03/25 11:02:13;;;;;;;;;;;19.60;63.00;;;;;;6092138;23;19909;-74
2022/03/25 11:04:41;;;;;;;;;;;19.60;62.80;;;;;;6093198;23;19976;-75
2022/03/25 11:07:09;;;;;;;;;;;19.70;62.70;;;;;;6093419;23;19925;-75
2022/03/25 11:09:37;;;;;;;;;;;19.90;65.80;;;;;;6093143;23;19952;-73
2022/03/25 11:12:03;;;;;;;;;;;19.60;68.50;;;;;;6093134;23;19956;-74
2022/03/25 11:14:29;;;;;;;;;;;19.50;66.70;;;;;;6093644;23;20326;-74
2022/03/25 11:16:59;;;;;;;;;;;19.50;67.70;;;;;;6093178;23;19941;-73
2022/03/25 11:19:25;;;;;;;;;;;19.40;71.20;;;;;;6093789;23;20383;-73
2022/03/25 11:21:51;;;;;;;;;;;19.60;72.50;;;;;;6092976;23;19992;-74
2022/03/25 11:24:30;;;;;;;;;;;19.60;72.30;;;;;;6104348;23;19983;-74
2022/03/25 11:26:56;;;;;;;;;;;19.90;73.30;;;;;;6184798;23;19991;-73
2022/03/25 11:29:26;;;;;;;;;;;20.00;71.30;;;;;;6186025;23;19979;-72
2022/03/25 11:32:02;;;;;;;;;;;20.10;69.60;;;;;;6183764;23;20254;-72
2022/03/25 11:34:28;;;;;;;;;;;19.90;69.60;;;;;;6185489;23;19909;-73
2022/03/25 11:37:13;;;;;;;;;;;19.70;71.50;;;;;;6185509;23;19914;-73
2022/03/25 11:39:38;;;;;;;;;;;19.60;72.60;;;;;;6186117;23;19905;-73
2022/03/25 11:42:23;;;;;;;;;;;19.50;71.60;;;;;;6186107;23;19904;-73
2022/03/25 11:44:52;;;;;;;;;;;19.50;70.90;;;;;;6186161;23;19914;-74
2022/03/25 11:47:17;;;;;;;;;;;19.40;70.50;;;;;;6185822;23;19904;-73
2022/03/25 11:49:43;;;;;;;;;;;19.50;71.00;;;;;;6185194;23;20351;-73
2022/03/25 11:52:25;;;;;;;;;;;19.50;68.40;;;;;;6185487;23;20361;-74
2022/03/25 11:55:01;;;;;;;;;;;19.70;70.00;;;;;;6185274;23;20210;-72
2022/03/25 11:57:31;;;;;;;;;;;19.70;70.80;;;;;;6185394;23;19957;-73
2022/03/25 12:00:20;;;;;;;;;;;19.70;71.80;;;;;;6185152;23;19905;-73
2022/03/25 12:02:59;;;;;;;;;;;19.70;72.90;;;;;;6184366;23;19931;-73
2022/03/25 12:05:24;;;;;;;;;;;19.30;71.80;;;;;;6184992;23;19923;-72
2022/03/25 12:08:09;;;;;;;;;;;19.20;74.60;;;;;;6185665;23;19990;-74
2022/03/25 12:10:45;;;;;;;;;;;19.40;74.30;;;;;;6182937;23;19983;-73
2022/03/25 12:13:11;;;;;;;;;;;19.60;73.40;;;;;;6184638;23;20078;-73
2022/03/25 12:15:41;;;;;;;;;;;19.80;72.90;;;;;;6192099;23;20322;-74
2022/03/25 12:18:25;;;;;;;;;;;20.00;72.10;;;;;;6245349;23;19914;-74
2022/03/25 12:20:50;;;;;;;;;;;19.70;69.90;;;;;;6246470;23;19903;-73
2022/03/25 12:23:29;;;;;;;;;;;19.70;72.30;;;;;;6245451;23;19930;-73
2022/03/25 12:25:55;;;;;;;;;;;20.00;73.10;;;;;;6245966;23;20333;-72
2022/03/25 12:28:24;;;;;;;;;;;19.90;70.20;;;;;;6245831;23;19915;-73
2022/03/25 12:30:51;;;;;;;;;;;20.00;72.80;;;;;;6246026;23;19903;-73
2022/03/25 12:33:18;;;;;;;;;;;20.00;70.40;;;;;;6245921;23;20240;-74
2022/03/25 12:35:47;;;;;;;;;;;20.20;73.30;;;;;;6218601;23;20348;-75
2022/03/25 12:38:17;;;;;;;;;;;20.30;68.00;;;;;;6245635;23;19931;-73
2022/03/25 12:40:43;;;;;;;;;;;20.00;72.60;;;;;;6245579;23;19911;-74
2022/03/25 12:43:11;;;;;;;;;;;20.10;69.50;;;;;;6246127;23;19930;-74
2022/03/25 12:45:49;;;;;;;;;;;20.20;69.30;;;;;;6245522;23;19908;-75
2022/03/25 12:48:19;;;;;;;;;;;20.30;71.70;;;;;;6218302;23;20041;-74
2022/03/25 12:50:46;;;;;;;;;;;20.20;63.40;;;;;;6218805;23;20194;-74
2022/03/25 12:53:12;;;;;;;;;;;19.90;71.00;;;;;;6218051;23;20212;-74
2022/03/25 12:55:38;;;;;;;;;;;19.80;67.10;;;;;;6244766;23;19938;-75
2022/03/25 12:58:08;;;;;;;;;;;19.90;66.20;;;;;;6244444;23;19962;-75
2022/03/25 13:00:37;;;;;;;;;;;19.60;62.00;;;;;;6244434;23;19904;-74
2022/03/25 13:03:03;;;;;;;;;;;19.80;64.90;;;;;;6244533;23;19931;-74
2022/03/25 13:05:30;;;;;;;;;;;19.60;62.70;;;;;;6245746;23;19927;-74
2022/03/25 13:07:56;;;;;;;;;;;19.30;54.70;;;;;;6245925;23;20316;-74
2022/03/25 13:10:23;;;;;;;;;;;19.30;58.20;;;;;;6245865;23;19903;-75
2022/03/25 13:12:54;;;;;;;;;;;19.20;56.00;;;;;;6245584;23;19912;-74
2022/03/25 13:15:25;;;;;;;;;;;19.30;55.40;;;;;;6245490;23;20193;-76
2022/03/25 13:17:58;;;;;;;;;;;19.60;52.40;;;;;;6246429;23;19923;-74
2022/03/25 13:20:24;;;;;;;;;;;19.20;48.60;;;;;;6246842;23;20221;-74
2022/03/25 13:22:58;;;;;;;;;;;18.80;49.50;;;;;;6246367;23;19903;-75
2022/03/25 13:25:24;;;;;;;;;;;19.00;55.90;;;;;;6246681;23;19911;-74
2022/03/25 13:27:50;;;;;;;;;;;18.80;55.90;;;;;;6246403;23;20229;-74
2022/03/25 13:30:16;;;;;;;;;;;19.00;56.30;;;;;;6246772;23;19907;-75
2022/03/25 13:32:42;;;;;;;;;;;18.90;57.60;;;;;;6246663;23;19903;-74
2022/03/25 13:35:13;;;;;;;;;;;18.90;54.90;;;;;;6246200;23;19912;-75
2022/03/25 13:37:38;;;;;;;;;;;19.00;58.00;;;;;;6246163;23;19904;-75
2022/03/25 13:40:24;;;;;;;;;;;19.00;52.80;;;;;;6246278;23;20299;-74
2022/03/25 13:42:54;;;;;;;;;;;19.20;60.30;;;;;;6246099;23;19998;-74
2022/03/25 13:45:20;;;;;;;;;;;19.40;62.40;;;;;;6246287;23;20300;-74
2022/03/25 13:47:56;;;;;;;;;;;19.70;61.00;;;;;;6246234;23;19907;-75
2022/03/25 13:50:22;;;;;;;;;;;19.80;60.00;;;;;;6246031;23;19910;-74
2022/03/25 13:53:09;;;;;;;;;;;20.10;58.70;;;;;;6245981;23;19907;-75
2022/03/25 13:55:39;;;;;;;;;;;20.20;56.90;;;;;;6245806;23;20313;-76
2022/03/25 13:58:11;;;;;;;;;;;19.90;54.60;;;;;;6246393;23;19935;-75
2022/03/25 14:00:39;;;;;;;;;;;19.70;56.70;;;;;;6246186;23;19910;-76
2022/03/25 14:03:16;;;;;;;;;;;19.90;58.30;;;;;;6246084;23;19904;-75
2022/03/25 14:05:42;;;;;;;;;;;19.80;52.20;;;;;;6245534;23;19908;-74
2022/03/25 14:08:10;;;;;;;;;;;19.90;52.30;;;;;;6245628;23;19910;-70
2022/03/25 14:10:47;;;;;;;;;;;19.80;52.80;;;;;;6245577;23;19903;-75
2022/03/25 14:13:13;;;;;;;;;;;19.70;53.90;;;;;;6246077;23;19958;-74
2022/03/25 14:15:39;;;;;;;;;;;19.50;54.00;;;;;;6245472;23;19983;-75
2022/03/25 14:18:15;;;;;;;;;;;19.20;53.80;;;;;;6246820;23;19931;-74
2022/03/25 14:20:41;;;;;;;;;;;18.90;55.30;;;;;;6246114;23;19938;-74
2022/03/25 14:23:11;;;;;;;;;;;18.70;58.40;;;;;;6246159;23;19910;-74
2022/03/25 14:25:37;;;;;;;;;;;18.70;58.90;;;;;;6246065;23;19904;-75
2022/03/25 14:28:14;;;;;;;;;;;18.70;62.10;;;;;;6246244;23;19904;-74
2022/03/25 14:30:41;;;;;;;;;;;18.70;59.30;;;;;;6219102;23;19903;-75